KABI/ABI METAR and TAF weather

Enter ICAO airport designator
Station Type Date Time Source
KABI METAR 2020/10/20 17:52 UTC NOAA

KABI 201752Z 19020G29KT 10SM SCT042 28/17 A2997 RMK AO2 PK WND 18029/1725 SLP128 T02830172 10283 20139 58015


Station Type Date Time Source
KABI Decoded METAR 2020/10/20 17:52 UTC NOAA

ABILENE REGIONAL AIRPORT, TX, United States (KABI) 32-25N 099-41W 548M
Oct 20, 2020 - 01:52 PM EDT / 2020.10.20 1752 UTC
Wind: from the S (190 degrees) at 23 MPH (20 KT) gusting to 33 MPH (29 KT):0
Visibility: 10 mile(s):0
Sky conditions: partly cloudy
Temperature: 82.9 F (28.3 C)
Dew Point: 63.0 F (17.2 C)
Relative Humidity: 50%
Pressure (altimeter): 29.97 in. Hg (1014 hPa)
Pressure tendency: 0.04 inches (1.5 hPa) lower than three hours ago
ob: KABI 201752Z 19020G29KT 10SM SCT042 28/17 A2997 RMK AO2 PK WND 18029/1725 SLP128 T02830172 10283 20139 58015
cycle: 18

Station Type Date Time Source
KABI TAF 2020/10/20 18:51 UTC NOAA

TAF KABI 201748Z 2018/2118 18014G23KT P6SM SCT035 BKN050
FM202100 17015G22KT P6SM SCT250
FM210000 16011KT P6SM SKC

Example: see airport list